Time;durP1;ratioP1;P1;durP2;ratioP2;P2;SDS_P1;SDS_P2;PMS_P1;PMS_P2;Temp;Humidity;BMP_temperature;BMP_pressure;BME280_temperature;BME280_humidity;BME280_pressure;Samples;Min_cycle;Max_cycle;Signal;HPM_P1;HPM_P2
2022/01/30 00:01:57;;;;;;;6.38;2.80;;;;;;;10.81;88.43;102684.00;5018902;28;20056;-65
2022/01/30 00:04:25;;;;;;;7.63;2.53;;;;;;;10.81;87.97;102686.75;5014502;28;20050;-65
2022/01/30 00:06:53;;;;;;;4.78;2.50;;;;;;;10.78;87.89;102698.28;5017087;28;20050;-64
2022/01/30 00:09:22;;;;;;;9.45;2.67;;;;;;;10.75;88.07;102690.56;5028437;28;20049;-65
2022/01/30 00:11:55;;;;;;;6.50;2.78;;;;;;;10.87;87.92;102694.78;5017772;28;20041;-65
2022/01/30 00:14:24;;;;;;;5.30;2.70;;;;;;;10.75;87.76;102685.06;5019136;28;20045;-65
2022/01/30 00:16:59;;;;;;;5.68;2.70;;;;;;;10.67;88.77;102680.84;5016683;28;20088;-65
2022/01/30 00:19:37;;;;;;;6.18;3.22;;;;;;;10.52;89.43;102700.06;5018778;28;20468;-64
2022/01/30 00:24:55;;;;;;;7.38;3.25;;;;;;;10.27;91.25;102699.84;5033075;28;20060;-65
2022/01/30 00:27:32;;;;;;;7.72;3.42;;;;;;;10.42;91.39;102693.66;5036679;28;20056;-65
2022/01/30 00:29:59;;;;;;;6.05;3.08;;;;;;;10.38;91.29;102698.84;5036783;28;20496;-66
2022/01/30 00:32:27;;;;;;;8.25;3.63;;;;;;;10.73;90.40;102684.47;5018767;28;20152;-65
2022/01/30 00:35:15;;;;;;;8.45;3.45;;;;;;;10.74;89.54;102686.16;5036284;28;20054;-64
2022/01/30 00:37:43;;;;;;;6.10;3.10;;;;;;;10.70;89.64;102685.03;5035596;28;20420;-64
2022/01/30 00:40:30;;;;;;;5.68;3.03;;;;;;;10.62;89.74;102682.75;5021985;28;20045;-64
2022/01/30 00:42:58;;;;;;;9.30;3.20;;;;;;;10.81;89.29;102673.78;5036254;28;20046;-64
2022/01/30 00:45:26;;;;;;;5.93;3.08;;;;;;;10.58;89.16;102670.63;5036563;28;20057;-64
2022/01/30 00:47:54;;;;;;;7.43;3.25;;;;;;;10.43;90.37;102665.84;5017874;28;20041;-64
2022/01/30 00:50:22;;;;;;;9.95;3.42;;;;;;;10.46;90.39;102662.53;4999458;28;20057;-64
2022/01/30 00:52:53;;;;;;;6.72;3.08;;;;;;;10.47;89.95;102669.72;5018113;28;20050;-64
2022/01/30 00:55:25;;;;;;;9.30;3.33;;;;;;;10.64;89.46;102662.09;4998720;28;20060;-65
2022/01/30 00:57:53;;;;;;;7.35;3.70;;;;;;;10.59;89.08;102669.50;5016430;28;20057;-64
2022/01/30 01:00:22;;;;;;;8.35;3.42;;;;;;;10.68;88.73;102667.91;4998651;28;20535;-65
2022/01/30 01:02:50;;;;;;;7.93;3.30;;;;;;;10.70;89.05;102661.06;5017857;28;20046;-64
2022/01/30 01:05:18;;;;;;;9.70;3.50;;;;;;;10.44;89.46;102658.41;5024389;28;20072;-64
2022/01/30 01:07:48;;;;;;;8.18;3.45;;;;;;;10.39;89.31;102648.16;5035497;28;20099;-64
2022/01/30 01:10:32;;;;;;;7.53;3.42;;;;;;;10.51;89.71;102648.81;5035594;28;20057;-64
2022/01/30 01:13:12;;;;;;;7.88;3.25;;;;;;;10.36;89.28;102651.47;5045345;28;20467;-65
2022/01/30 01:24:08;;;;;;;10.40;3.60;;;;;;;10.58;87.60;102637.56;4994998;28;20076;-65
2022/01/30 01:26:37;;;;;;;9.45;3.90;;;;;;;10.50;88.03;102640.78;5035479;28;20096;-65
2022/01/30 01:29:05;;;;;;;8.32;3.42;;;;;;;10.36;88.66;102634.09;5034385;28;20538;-65
2022/01/30 01:31:33;;;;;;;7.10;4.15;;;;;;;10.42;88.79;102633.88;5035342;28;20050;-65
2022/01/30 01:36:46;;;;;;;10.38;4.70;;;;;;;10.20;89.98;102639.50;5034680;28;20046;-64
2022/01/30 01:39:13;;;;;;;12.57;5.13;;;;;;;10.16;90.55;102637.56;5033511;28;20053;-65
2022/01/30 01:41:41;;;;;;;12.77;4.80;;;;;;;10.26;90.35;102639.53;5032997;28;20061;-64
2022/01/30 01:44:19;;;;;;;11.52;4.78;;;;;;;10.18;90.06;102638.94;5034966;28;20520;-65
2022/01/30 01:46:48;;;;;;;11.82;5.15;;;;;;;10.20;90.40;102634.00;5033344;28;20049;-64
2022/01/30 01:49:21;;;;;;;8.48;4.45;;;;;;;10.10;90.76;102639.44;5035187;28;20049;-65
2022/01/30 01:52:03;;;;;;;13.30;4.88;;;;;;;10.19;90.32;102643.38;5033905;28;20523;-65
2022/01/30 01:54:31;;;;;;;10.15;4.95;;;;;;;10.06;91.29;102654.78;5016726;28;20037;-64
2022/01/30 01:56:58;;;;;;;11.90;4.65;;;;;;;10.04;91.18;102643.19;5032875;28;20057;-64
2022/01/30 01:59:35;;;;;;;9.70;5.07;;;;;;;10.09;90.97;102640.50;5033704;28;20057;-66
2022/01/30 02:02:38;;;;;;;13.73;5.85;;;;;;;10.25;90.62;102637.88;4991837;28;20062;-65
2022/01/30 02:05:08;;;;;;;15.40;5.88;;;;;;;10.36;89.98;102640.44;5021069;28;20504;-64
2022/01/30 02:10:36;;;;;;;16.03;5.67;;;;;;;9.99;90.62;102647.81;5035013;28;20056;-64
2022/01/30 02:13:35;;;;;;;14.33;5.50;;;;;;;9.85;91.92;102646.63;5025724;28;20048;-64
2022/01/30 02:24:29;;;;;;;13.73;5.38;;;;;;;10.13;90.55;102629.78;5034307;28;20057;-65
2022/01/30 02:26:56;;;;;;;15.57;6.57;;;;;;;10.19;90.83;102626.00;5033289;28;20064;-65
2022/01/30 02:29:23;;;;;;;15.43;5.45;;;;;;;10.25;90.27;102621.38;5017249;28;20045;-64
2022/01/30 02:31:55;;;;;;;13.13;6.50;;;;;;;10.29;90.05;102631.56;5023473;28;20402;-64
2022/01/30 02:34:30;;;;;;;14.38;6.35;;;;;;;10.01;90.98;102626.38;5013705;28;20046;-65
2022/01/30 02:36:58;;;;;;;15.25;6.18;;;;;;;10.23;91.00;102622.44;5014592;28;20058;-65
2022/01/30 02:39:26;;;;;;;14.90;6.22;;;;;;;9.82;91.64;102630.63;5029548;28;20053;-65
2022/01/30 02:41:54;;;;;;;13.25;6.13;;;;;;;9.92;92.10;102626.03;5034152;28;20431;-64
2022/01/30 02:44:31;;;;;;;12.10;6.05;;;;;;;9.82;91.96;102634.19;5033249;28;20041;-63
2022/01/30 02:47:05;;;;;;;16.85;5.75;;;;;;;9.99;92.39;102634.06;5034037;28;20057;-65
2022/01/30 02:52:10;;;;;;;19.02;6.30;;;;;;;9.91;91.42;102631.78;5013601;28;20073;-64
2022/01/30 02:54:37;;;;;;;15.73;5.95;;;;;;;9.83;91.84;102629.53;5010514;28;20434;-64
2022/01/30 02:57:05;;;;;;;20.67;5.28;;;;;;;9.87;91.94;102633.41;5016716;28;20064;-65
2022/01/30 02:59:33;;;;;;;16.02;5.97;;;;;;;9.84;91.18;102640.28;5032597;28;20060;-65
2022/01/30 03:02:01;;;;;;;20.10;6.18;;;;;;;9.68;92.51;102640.38;5011547;28;20042;-65
2022/01/30 03:04:31;;;;;;;20.45;5.95;;;;;;;9.57;93.22;102633.16;5014689;28;20050;-65
2022/01/30 03:06:58;;;;;;;18.02;5.55;;;;;;;9.66;92.92;102634.34;5006503;28;20053;-64
2022/01/30 03:09:35;;;;;;;16.13;5.25;;;;;;;9.75;92.98;102641.00;5016418;28;20435;-65
2022/01/30 03:12:03;;;;;;;19.90;6.32;;;;;;;9.88;91.80;102641.44;5015614;28;20045;-65
2022/01/30 03:14:30;;;;;;;21.27;6.88;;;;;;;9.73;92.42;102640.44;5018496;28;20512;-67
2022/01/30 03:16:58;;;;;;;18.38;5.93;;;;;;;9.64;92.38;102633.78;5004058;28;20392;-64
2022/01/30 03:19:25;;;;;;;18.25;6.53;;;;;;;9.73;92.50;102638.53;5037625;28;20046;-64
2022/01/30 03:21:53;;;;;;;18.48;6.13;;;;;;;9.79;92.01;102642.16;5034980;28;20051;-65
2022/01/30 03:24:20;;;;;;;21.83;6.60;;;;;;;9.53;93.00;102646.59;5019941;28;20041;-64
2022/01/30 03:26:48;;;;;;;17.67;6.25;;;;;;;9.36;94.32;102642.28;5003070;28;20132;-64
2022/01/30 03:29:37;;;;;;;17.90;6.78;;;;;;;9.50;94.50;102641.59;5037267;28;20056;-65
2022/01/30 03:32:07;;;;;;;22.52;6.53;;;;;;;9.39;94.83;102644.50;5019709;28;20046;-65
2022/01/30 03:34:35;;;;;;;18.08;7.25;;;;;;;9.33;95.11;102649.09;5020385;28;20404;-64
2022/01/30 03:37:02;;;;;;;20.50;7.03;;;;;;;9.42;94.49;102644.81;5019381;28;20053;-64
2022/01/30 03:39:32;;;;;;;26.15;6.75;;;;;;;9.32;95.69;102636.47;5019754;28;20054;-65
2022/01/30 03:41:59;;;;;;;16.85;6.70;;;;;;;9.42;95.18;102649.47;5019848;28;20060;-65
2022/01/30 03:44:26;;;;;;;16.30;6.55;;;;;;;9.56;94.35;102650.72;5037462;28;20046;-64
2022/01/30 03:46:54;;;;;;;23.08;6.85;;;;;;;9.73;93.50;102635.78;5036858;28;20060;-64
2022/01/30 03:49:25;;;;;;;24.73;6.80;;;;;;;9.56;93.27;102637.81;5019481;28;20647;-64
2022/01/30 03:51:53;;;;;;;21.65;6.63;;;;;;;9.69;93.29;102639.31;5018982;28;20041;-65
2022/01/30 03:54:26;;;;;;;20.30;6.55;;;;;;;9.67;92.36;102634.06;5019052;28;20049;-64
2022/01/30 03:56:54;;;;;;;20.38;6.65;;;;;;;9.34;93.78;102628.78;5019470;28;20065;-65
2022/01/30 03:59:25;;;;;;;24.33;7.90;;;;;;;9.33;94.71;102629.84;5002894;28;20056;-64
2022/01/30 04:01:53;;;;;;;21.08;7.28;;;;;;;9.31;94.96;102633.97;5019179;28;20061;-64
2022/01/30 04:04:22;;;;;;;22.87;7.10;;;;;;;9.43;93.43;102640.16;5019191;28;20048;-65
2022/01/30 04:06:50;;;;;;;26.27;6.97;;;;;;;9.43;92.89;102638.22;5019409;28;20285;-64
2022/01/30 04:09:36;;;;;;;20.00;6.75;;;;;;;9.25;93.12;102646.81;5036902;28;20041;-64
2022/01/30 04:12:18;;;;;;;22.17;6.75;;;;;;;9.54;92.83;102639.16;5022851;28;20048;-65
2022/01/30 04:15:24;;;;;;;24.38;7.03;;;;;;;9.63;91.77;102643.94;5030013;28;20053;-66
2022/01/30 04:18:03;;;;;;;21.70;6.55;;;;;;;9.90;90.45;102641.16;5038987;28;20068;-64
2022/01/30 04:20:37;;;;;;;20.27;6.60;;;;;;;9.96;89.34;102648.34;5018285;28;20045;-64
2022/01/30 04:23:33;;;;;;;20.02;7.00;;;;;;;9.73;89.08;102645.94;4965917;28;20054;-64
2022/01/30 04:26:39;;;;;;;25.35;6.88;;;;;;;9.88;88.13;102651.59;4936273;29;20047;-64
2022/01/30 04:29:17;;;;;;;20.17;6.53;;;;;;;9.40;88.07;102651.66;4938781;29;20051;-64
2022/01/30 04:31:51;;;;;;;18.90;6.43;;;;;;;9.70;88.19;102647.31;4971456;28;20050;-65
2022/01/30 04:34:44;;;;;;;23.52;6.53;;;;;;;9.84;85.58;102651.28;5013653;28;20411;-64
2022/01/30 04:37:26;;;;;;;22.60;5.55;;;;;;;9.88;83.69;102649.69;5017729;28;20061;-64
2022/01/30 04:52:50;;;;;;;19.42;3.70;;;;;;;9.87;68.10;102664.53;5035690;28;20064;-65
2022/01/30 05:01:17;;;;;;;21.42;4.05;;;;;;;9.34;65.99;102677.44;5013165;28;20068;-65
2022/01/30 05:04:14;;;;;;;15.63;3.63;;;;;;;9.21;66.04;102675.91;5017595;28;20148;-64
2022/01/30 05:09:51;;;;;;;18.90;4.05;;;;;;;9.14;65.10;102672.53;5035603;28;20053;-64
2022/01/30 05:12:42;;;;;;;17.67;3.17;;;;;;;9.32;64.93;102666.72;5018056;28;20049;-64
2022/01/30 05:15:30;;;;;;;14.48;2.90;;;;;;;9.59;64.34;102677.75;4977956;28;20084;-65
2022/01/30 05:18:22;;;;;;;19.02;3.47;;;;;;;9.48;63.13;102678.72;5035573;28;20052;-64
2022/01/30 05:21:08;;;;;;;15.13;3.35;;;;;;;9.29;63.32;102683.72;5017597;28;20057;-64
2022/01/30 05:23:45;;;;;;;14.27;3.10;;;;;;;9.12;63.76;102684.88;5017489;28;20053;-64
2022/01/30 05:26:31;;;;;;;20.83;3.15;;;;;;;9.09;63.00;102678.81;5035715;28;20049;-64
2022/01/30 05:29:21;;;;;;;18.15;3.33;;;;;;;8.83;64.23;102689.72;5004712;28;20049;-63
2022/01/30 05:31:58;;;;;;;21.00;3.42;;;;;;;8.82;63.42;102697.13;5017759;28;20049;-65
2022/01/30 05:34:30;;;;;;;17.10;2.85;;;;;;;9.02;63.20;102685.56;5015733;28;20042;-65
2022/01/30 05:37:19;;;;;;;18.95;3.22;;;;;;;9.19;62.22;102696.53;5014694;28;20169;-65
2022/01/30 05:40:06;;;;;;;20.38;3.30;;;;;;;8.99;63.34;102706.19;5025400;28;20057;-65
2022/01/30 05:43:07;;;;;;;17.42;3.05;;;;;;;8.84;63.44;102705.09;5002317;28;20046;-65
2022/01/30 05:45:44;;;;;;;16.95;3.17;;;;;;;8.93;62.92;102698.94;4997154;28;20062;-64
2022/01/30 05:48:16;;;;;;;20.42;3.78;;;;;;;8.86;63.49;102703.78;5015405;28;20053;-64
2022/01/30 05:51:02;;;;;;;16.98;3.30;;;;;;;9.05;63.07;102712.53;5026674;28;20045;-64
2022/01/30 05:53:52;;;;;;;;;;;;;;;8.74;63.84;102702.22;5027116;28;20061;-64
2022/01/30 05:56:22;;;;;;;21.50;3.85;;;;;;;8.85;64.16;102702.13;5016665;28;20040;-64
2022/01/30 05:58:50;;;;;;;20.15;3.22;;;;;;;8.84;64.13;102700.44;5000388;28;20056;-64
2022/01/30 06:01:20;;;;;;;19.05;3.55;;;;;;;8.77;64.40;102699.81;5016158;28;20057;-65
2022/01/30 06:03:48;;;;;;;16.38;3.15;;;;;;;8.95;64.14;102702.25;5016524;28;20519;-64
2022/01/30 06:06:15;;;;;;;21.98;3.80;;;;;;;9.13;63.27;102710.19;5033863;28;20058;-64
2022/01/30 06:08:58;;;;;;;17.92;3.40;;;;;;;8.88;63.50;102704.38;5017326;28;20045;-64
2022/01/30 06:11:25;;;;;;;23.13;3.40;;;;;;;8.90;63.36;102715.09;5017290;28;20411;-64
2022/01/30 06:13:53;;;;;;;16.75;3.22;;;;;;;8.72;63.58;102713.47;5018755;28;20057;-64
2022/01/30 06:16:20;;;;;;;16.02;3.53;;;;;;;8.81;63.47;102706.47;5016326;28;20148;-65
2022/01/30 06:18:48;;;;;;;18.83;3.00;;;;;;;8.78;62.97;102709.72;5000212;28;20058;-65
2022/01/30 06:21:34;;;;;;;16.55;3.55;;;;;;;8.55;63.75;102720.91;5034851;28;20045;-64
2022/01/30 06:24:20;;;;;;;24.38;3.55;;;;;;;8.58;63.74;102728.63;5034338;28;20053;-63
2022/01/30 06:27:10;;;;;;;15.60;3.28;;;;;;;8.81;62.70;102739.44;5014849;28;20058;-65
2022/01/30 06:29:56;;;;;;;24.42;3.95;;;;;;;8.88;62.38;102731.84;5014507;28;20485;-64
2022/01/30 06:32:42;;;;;;;22.38;3.45;;;;;;;8.51;63.08;102743.59;5019553;28;20488;-65
2022/01/30 06:35:47;;;;;;;17.27;3.28;;;;;;;8.66;63.50;102736.47;5034396;28;20053;-65
2022/01/30 06:38:26;;;;;;;19.73;3.10;;;;;;;8.69;62.86;102735.97;5016638;28;20424;-64
2022/01/30 06:41:14;;;;;;;17.92;3.72;;;;;;;8.83;62.46;102730.94;4992823;28;20061;-64
2022/01/30 06:44:01;;;;;;;17.92;3.42;;;;;;;8.91;62.59;102725.00;4978451;28;20662;-65
2022/01/30 06:46:47;;;;;;;22.65;3.72;;;;;;;8.63;62.56;102730.66;5019306;28;20041;-64
2022/01/30 06:49:33;;;;;;;18.63;4.07;;;;;;;8.58;63.00;102731.38;5038081;28;20400;-64
2022/01/30 06:52:11;;;;;;;18.42;3.40;;;;;;;8.67;63.22;102735.38;5038402;28;20049;-64
2022/01/30 06:54:57;;;;;;;21.02;3.33;;;;;;;8.86;62.61;102731.25;5006444;28;20057;-63
2022/01/30 06:57:44;;;;;;;16.77;3.20;;;;;;;8.81;61.95;102730.34;5038248;28;20049;-63
2022/01/30 07:00:38;;;;;;;19.92;3.70;;;;;;;8.68;62.24;102742.53;5036946;28;20049;-64
2022/01/30 07:03:23;;;;;;;22.83;3.28;;;;;;;8.75;61.85;102731.38;5037390;28;20389;-64
2022/01/30 07:06:13;;;;;;;18.73;3.15;;;;;;;8.38;62.83;102739.31;5020731;28;20057;-63
2022/01/30 07:08:41;;;;;;;20.80;3.25;;;;;;;8.43;62.46;102742.13;5019755;28;20053;-64
2022/01/30 07:11:09;;;;;;;17.00;3.15;;;;;;;8.26;63.12;102735.81;5037620;28;20049;-65
2022/01/30 07:13:36;;;;;;;17.13;3.08;;;;;;;8.26;62.66;102738.56;5052930;28;20048;-64
2022/01/30 07:16:04;;;;;;;18.75;3.67;;;;;;;8.45;62.53;102747.38;5058152;28;20056;-64
2022/01/30 07:18:31;;;;;;;22.27;3.50;;;;;;;8.31;63.05;102743.28;5057875;28;20052;-64
2022/01/30 07:21:00;;;;;;;20.83;3.30;;;;;;;8.26;63.56;102741.31;5044686;28;20176;-63
2022/01/30 07:23:27;;;;;;;20.85;3.05;;;;;;;8.52;63.32;102748.88;5036673;28;20619;-65
2022/01/30 07:25:57;;;;;;;18.23;3.22;;;;;;;8.67;62.23;102756.50;5037202;28;20041;-64
2022/01/30 07:28:24;;;;;;;27.88;3.80;;;;;;;8.74;62.60;102758.00;5037720;28;20049;-65
2022/01/30 07:30:51;;;;;;;21.80;2.80;;;;;;;8.78;62.40;102759.19;5036919;28;20053;-65
2022/01/30 07:33:19;;;;;;;20.20;3.47;;;;;;;8.83;63.33;102761.16;5037778;28;20508;-64
2022/01/30 07:35:46;;;;;;;24.00;4.53;;;;;;;8.48;64.81;102771.59;5037823;28;20056;-66
2022/01/30 07:38:15;;;;;;;21.52;4.07;;;;;;;8.13;66.86;102784.66;5036023;28;20408;-64
2022/01/30 07:40:43;;;;;;;22.23;4.60;;;;;;;8.06;67.25;102779.31;5036677;28;20053;-64
2022/01/30 07:43:10;;;;;;;18.58;4.05;;;;;;;8.09;67.17;102781.56;5033261;28;20041;-64
2022/01/30 07:45:46;;;;;;;21.23;4.07;;;;;;;8.10;67.32;102783.25;5020952;28;20061;-64
2022/01/30 07:48:15;;;;;;;24.27;3.40;;;;;;;8.10;67.38;102787.91;5044322;28;20064;-65
2022/01/30 07:50:42;;;;;;;23.10;4.13;;;;;;;7.85;68.00;102786.34;5038387;28;20509;-65
2022/01/30 07:53:09;;;;;;;23.83;4.80;;;;;;;7.95;67.96;102799.41;5018878;28;20052;-64
2022/01/30 07:55:37;;;;;;;18.25;3.90;;;;;;;8.20;67.88;102793.56;5036652;28;20046;-65
2022/01/30 07:58:06;;;;;;;20.45;5.20;;;;;;;8.41;67.06;102801.97;5036106;28;20052;-65
2022/01/30 08:00:33;;;;;;;21.45;4.35;;;;;;;8.40;66.43;102797.56;5024071;28;20056;-65
2022/01/30 08:03:00;;;;;;;29.85;4.78;;;;;;;8.40;67.11;102804.97;5034084;28;20050;-65
2022/01/30 08:05:28;;;;;;;21.40;4.18;;;;;;;8.22;66.97;102803.25;5035887;28;20065;-65
2022/01/30 08:07:55;;;;;;;24.70;4.90;;;;;;;8.21;68.02;102800.75;5036821;28;20072;-65
2022/01/30 08:10:22;;;;;;;21.73;3.50;;;;;;;7.94;68.16;102803.25;5036699;28;20053;-65
2022/01/30 08:12:49;;;;;;;37.83;13.93;;;;;;;8.09;68.99;102813.69;5034341;28;20053;-66
2022/01/30 08:15:17;;;;;;;22.52;5.00;;;;;;;8.07;68.58;102805.72;5017854;28;20053;-66
2022/01/30 08:17:44;;;;;;;18.67;4.05;;;;;;;7.72;69.63;102808.56;5035408;28;20053;-66
2022/01/30 08:20:12;;;;;;;24.30;3.58;;;;;;;7.75;69.39;102816.34;5034690;28;20041;-64
2022/01/30 08:22:50;;;;;;;29.40;5.00;;;;;;;7.64;69.82;102811.72;5033669;28;20045;-65
2022/01/30 08:25:20;;;;;;;22.33;5.00;;;;;;;7.77;69.92;102813.34;5005303;28;20480;-66
2022/01/30 08:27:48;;;;;;;25.20;4.20;;;;;;;8.13;69.45;102812.94;5030379;28;20072;-65
2022/01/30 08:30:15;;;;;;;20.65;3.78;;;;;;;8.39;67.81;102812.34;5015229;28;20065;-66
2022/01/30 08:32:45;;;;;;;21.08;4.30;;;;;;;8.08;67.15;102810.09;5036226;28;20049;-67
2022/01/30 08:35:14;;;;;;;18.50;3.78;;;;;;;8.57;67.47;102812.13;5018188;28;20057;-66
2022/01/30 08:37:42;;;;;;;23.98;4.57;;;;;;;8.91;65.78;102800.03;5017724;28;20046;-66
2022/01/30 08:40:14;;;;;;;17.80;3.53;;;;;;;8.95;65.09;102801.19;5016174;28;20057;-65
2022/01/30 08:42:42;;;;;;;24.92;4.07;;;;;;;9.08;63.45;102800.84;5015884;28;20045;-66
2022/01/30 08:45:10;;;;;;;17.98;3.22;;;;;;;9.03;62.49;102802.69;5016647;28;20061;-67
2022/01/30 08:47:40;;;;;;;16.77;3.13;;;;;;;8.15;64.19;102805.31;5029682;28;20551;-63
2022/01/30 08:50:08;;;;;;;20.63;3.40;;;;;;;8.20;64.48;102807.28;5031777;28;20072;-64
2022/01/30 08:52:36;;;;;;;17.60;3.50;;;;;;;8.54;63.33;102804.38;5033480;28;20041;-64
2022/01/30 08:55:05;;;;;;;18.65;3.20;;;;;;;8.40;63.59;102794.81;5035288;28;20053;-64
2022/01/30 08:57:32;;;;;;;18.60;3.33;;;;;;;8.33;63.52;102815.28;5035903;28;20061;-65
2022/01/30 09:00:00;;;;;;;17.50;4.60;;;;;;;8.60;63.16;102805.28;5035555;28;20500;-64
2022/01/30 09:02:27;;;;;;;19.65;4.10;;;;;;;8.50;62.89;102805.13;5034422;28;20073;-65
2022/01/30 09:04:54;;;;;;;24.75;3.75;;;;;;;8.59;62.60;102807.22;5009696;28;20046;-64
2022/01/30 09:07:22;;;;;;;14.75;3.35;;;;;;;8.52;62.22;102811.22;5027835;28;20052;-64
2022/01/30 09:09:49;;;;;;;22.13;3.78;;;;;;;8.58;62.47;102818.44;5036554;28;20045;-64
2022/01/30 09:12:16;;;;;;;21.10;3.53;;;;;;;8.58;62.37;102819.28;5036366;28;20044;-65
2022/01/30 09:14:43;;;;;;;19.60;3.45;;;;;;;8.84;61.75;102817.78;5055700;28;20527;-64
2022/01/30 09:17:15;;;;;;;19.05;3.33;;;;;;;9.09;60.87;102809.91;5055380;28;20630;-65
2022/01/30 09:19:47;;;;;;;19.55;3.67;;;;;;;8.91;61.75;102812.94;5055483;28;20053;-64
2022/01/30 09:22:17;;;;;;;20.30;3.58;;;;;;;8.95;61.21;102803.09;5036439;28;20038;-66
2022/01/30 09:24:45;;;;;;;23.02;4.20;;;;;;;9.17;60.81;102816.91;5033679;28;20595;-65
2022/01/30 09:27:12;;;;;;;18.77;3.40;;;;;;;8.87;60.34;102811.78;5034363;28;20046;-65
2022/01/30 09:29:40;;;;;;;27.63;3.63;;;;;;;8.73;60.16;102815.97;5035494;28;20049;-64
2022/01/30 09:32:07;;;;;;;22.80;3.38;;;;;;;8.48;60.60;102819.13;5034965;28;20060;-64
2022/01/30 09:34:36;;;;;;;21.73;3.80;;;;;;;8.34;60.97;102823.25;5034370;28;20385;-64
2022/01/30 09:37:07;;;;;;;20.38;4.07;;;;;;;8.23;61.86;102818.63;5033081;28;20071;-64
2022/01/30 09:39:35;;;;;;;18.98;3.63;;;;;;;8.41;61.53;102828.59;5032097;28;20079;-64
2022/01/30 09:42:03;;;;;;;28.58;4.10;;;;;;;8.30;62.15;102827.56;5033179;28;20053;-64
2022/01/30 09:44:34;;;;;;;23.02;4.50;;;;;;;8.12;62.60;102822.28;5032709;28;20049;-66
2022/01/30 09:47:02;;;;;;;24.00;4.88;;;;;;;8.63;62.43;102822.09;5032068;28;20045;-65
2022/01/30 09:49:30;;;;;;;22.15;4.20;;;;;;;8.90;61.54;102819.53;5033919;28;20440;-64
2022/01/30 09:51:57;;;;;;;19.77;4.10;;;;;;;8.87;61.12;102823.59;5032610;28;20058;-65
2022/01/30 09:54:24;;;;;;;25.05;4.45;;;;;;;8.89;60.80;102828.88;5033759;28;20045;-64
2022/01/30 09:56:51;;;;;;;19.35;3.78;;;;;;;8.79;60.71;102825.94;5032162;28;20052;-65
2022/01/30 09:59:19;;;;;;;18.60;4.10;;;;;;;8.18;62.10;102829.50;5032285;28;20037;-64
2022/01/30 10:01:46;;;;;;;23.75;4.50;;;;;;;8.39;61.69;102830.72;5016645;28;20049;-62
2022/01/30 10:04:14;;;;;;;22.90;4.80;;;;;;;8.27;62.98;102819.81;5033910;28;20384;-63
2022/01/30 10:06:55;;;;;;;15.07;3.63;;;;;;;8.59;61.70;102833.84;5032250;28;20057;-62
2022/01/30 10:09:28;;;;;;;19.73;3.45;;;;;;;8.31;61.64;102822.91;5012958;28;20496;-61
2022/01/30 10:15:02;;;;;;;19.05;3.65;;;;;;;8.39;62.53;102825.25;5042535;28;20049;-62
2022/01/30 10:17:41;;;;;;;19.20;4.28;;;;;;;8.52;61.37;102831.28;5033809;28;20504;-62
2022/01/30 10:20:35;;;;;;;23.40;3.85;;;;;;;8.80;60.53;102828.44;5033071;28;20057;-63
2022/01/30 10:23:08;;;;;;;20.90;4.68;;;;;;;8.53;60.35;102827.44;5015720;28;20053;-66
2022/01/30 10:26:01;;;;;;;24.55;4.93;;;;;;;8.39;61.00;102830.72;5014960;28;20205;-64
2022/01/30 10:28:31;;;;;;;26.45;4.80;;;;;;;8.38;61.47;102824.44;5015071;28;20053;-65
2022/01/30 10:31:06;;;;;;;27.30;4.18;;;;;;;8.27;61.14;102819.00;5011640;28;20053;-64
2022/01/30 10:33:51;;;;;;;20.13;3.75;;;;;;;8.41;60.94;102815.69;5033583;28;20058;-65
2022/01/30 10:36:23;;;;;;;22.35;3.88;;;;;;;8.82;60.17;102818.03;5033127;28;20060;-64
2022/01/30 10:39:12;;;;;;;22.35;4.20;;;;;;;8.95;59.86;102814.94;5033395;28;20052;-64
2022/01/30 10:41:52;;;;;;;25.45;3.90;;;;;;;9.07;58.79;102818.44;5016744;28;20408;-65
2022/01/30 10:44:19;;;;;;;22.23;5.38;;;;;;;8.78;58.90;102819.63;5033441;28;20064;-64
2022/01/30 10:46:48;;;;;;;21.10;3.65;;;;;;;8.49;60.56;102815.28;5031312;28;20132;-65
2022/01/30 10:49:18;;;;;;;19.83;4.97;;;;;;;8.81;59.67;102821.03;5030860;28;20037;-65
2022/01/30 10:51:56;;;;;;;25.23;5.15;;;;;;;8.61;60.27;102813.28;5032117;28;20045;-64
2022/01/30 10:54:26;;;;;;;23.45;4.40;;;;;;;8.57;60.56;102817.63;5032487;28;20408;-65
2022/01/30 10:57:08;;;;;;;21.92;3.95;;;;;;;8.44;60.71;102817.13;5004873;28;20042;-65
2022/01/30 10:59:42;;;;;;;20.92;4.63;;;;;;;8.56;61.08;102820.63;5032113;28;20072;-66
2022/01/30 11:02:18;;;;;;;25.60;5.50;;;;;;;8.70;60.74;102809.03;5030067;28;20049;-65
2022/01/30 11:04:48;;;;;;;21.48;4.72;;;;;;;8.86;59.65;102802.72;5025449;28;20056;-64
2022/01/30 11:07:20;;;;;;;22.35;4.07;;;;;;;9.25;59.31;102806.31;5031431;28;20053;-64
2022/01/30 11:10:02;;;;;;;25.92;4.40;;;;;;;9.79;57.36;102801.78;5032863;28;20049;-64
2022/01/30 11:12:45;;;;;;;18.40;4.03;;;;;;;9.63;57.21;102810.94;5032245;28;20061;-64
2022/01/30 11:15:35;;;;;;;25.27;4.65;;;;;;;9.04;58.11;102812.59;5033115;28;20048;-64
2022/01/30 11:18:04;;;;;;;21.55;4.70;;;;;;;9.09;59.37;102805.25;5033306;28;20404;-64
2022/01/30 11:20:32;;;;;;;22.67;5.10;;;;;;;8.64;59.91;102801.81;5029768;28;20070;-64
2022/01/30 11:23:06;;;;;;;24.77;4.65;;;;;;;8.78;59.93;102800.41;5034329;28;20084;-65
2022/01/30 11:25:35;;;;;;;24.30;4.40;;;;;;;8.73;60.74;102793.97;5033043;28;20056;-65
2022/01/30 11:28:04;;;;;;;20.95;4.53;;;;;;;8.99;59.68;102791.38;5032131;28;20519;-64
2022/01/30 11:30:52;;;;;;;22.15;4.68;;;;;;;9.23;59.28;102788.38;5031116;28;20062;-65
2022/01/30 11:33:19;;;;;;;22.17;4.70;;;;;;;8.87;59.08;102787.88;5032978;28;20060;-66
2022/01/30 11:35:47;;;;;;;35.78;4.93;;;;;;;8.95;59.10;102773.72;5033423;28;20049;-65
2022/01/30 11:38:15;;;;;;;23.60;5.38;;;;;;;9.13;59.47;102773.41;5036243;28;20042;-65
2022/01/30 11:41:08;;;;;;;28.02;5.18;;;;;;;9.34;58.15;102766.28;5036267;28;20408;-64
2022/01/30 11:43:35;;;;;;;26.02;7.03;;;;;;;9.80;57.79;102765.72;5036380;28;20492;-64
2022/01/30 11:46:14;;;;;;;20.58;4.70;;;;;;;9.52;57.87;102765.94;5036113;28;20061;-65
2022/01/30 11:48:42;;;;;;;18.52;4.30;;;;;;;9.12;58.70;102759.13;5035458;28;20048;-64
2022/01/30 11:51:09;;;;;;;21.00;4.40;;;;;;;9.58;58.62;102759.44;5036193;28;20079;-63
2022/01/30 11:53:37;;;;;;;17.63;4.18;;;;;;;9.12;58.92;102746.19;5032724;28;20045;-61
2022/01/30 11:56:05;;;;;;;22.20;4.63;;;;;;;9.04;58.92;102750.22;5030216;28;20503;-62
2022/01/30 11:58:54;;;;;;;26.27;4.70;;;;;;;9.44;58.57;102747.16;5025769;28;20516;-62
2022/01/30 12:01:25;;;;;;;21.45;4.85;;;;;;;9.09;59.12;102743.94;5027629;28;20049;-64
2022/01/30 12:03:59;;;;;;;25.65;4.65;;;;;;;9.61;57.96;102747.06;5031364;28;20064;-62
2022/01/30 12:06:32;;;;;;;25.67;4.90;;;;;;;9.85;56.87;102740.22;5025276;28;20064;-61
2022/01/30 12:09:22;;;;;;;24.65;4.95;;;;;;;9.96;56.89;102741.94;5026866;28;20056;-62
2022/01/30 12:11:50;;;;;;;;;;;;;;;9.73;56.08;102742.25;5025848;28;20062;-73
2022/01/30 12:14:21;;;;;;;20.45;4.00;;;;;;;9.51;56.90;102745.03;4992886;28;19929;-61
2022/01/30 12:16:49;;;;;;;22.40;4.47;;;;;;;9.44;57.71;102741.66;5027795;28;20056;-62
2022/01/30 12:19:42;;;;;;;28.85;5.43;;;;;;;9.69;57.91;102732.88;5008674;28;20542;-62
2022/01/30 12:22:16;;;;;;;20.45;5.60;;;;;;;10.06;56.16;102729.13;5026879;28;20057;-62
2022/01/30 12:24:44;;;;;;;18.85;4.50;;;;;;;10.64;56.62;102711.72;5026036;28;20057;-63
2022/01/30 12:27:12;;;;;;;20.13;4.85;;;;;;;10.52;54.83;102708.31;5025134;28;21414;-62
2022/01/30 12:29:50;;;;;;;19.45;5.72;;;;;;;10.68;54.13;102698.25;5022354;28;20045;-60
2022/01/30 12:32:22;;;;;;;30.92;5.43;;;;;;;10.72;54.94;102696.63;5022810;28;20049;-61
2022/01/30 12:35:02;;;;;;;19.73;4.30;;;;;;;10.71;54.13;102689.44;5024165;28;20249;-62
2022/01/30 12:37:35;;;;;;;18.95;4.90;;;;;;;10.91;54.58;102687.59;5025078;28;20050;-59
2022/01/30 12:40:17;;;;;;;25.33;4.80;;;;;;;10.85;55.60;102682.34;5021859;28;20045;-64
2022/01/30 12:42:45;;;;;;;21.35;4.07;;;;;;;10.49;55.92;102673.03;5027757;28;20037;-62
2022/01/30 12:45:14;;;;;;;18.38;5.03;;;;;;;10.39;55.49;102678.47;4983645;28;20057;-63
2022/01/30 12:47:59;;;;;;;20.20;4.55;;;;;;;10.01;57.43;102671.25;5033656;28;20053;-64